Time;durP1;ratioP1;P1;durP2;ratioP2;P2;SDS_P1;SDS_P2;PMS_P1;PMS_P2;Temp;Humidity;BMP_temperature;BMP_pressure;BME280_temperature;BME280_humidity;BME280_pressure;Samples;Min_cycle;Max_cycle;Signal;HPM_P1;HPM_P2
2022/10/19 00:02:07;;;;;;;;;;;;;;;13.16;60.74;101757.09;4919994;28;6962;-78
2022/10/19 00:04:33;;;;;;;;;;;;;;;13.12;61.40;101762.84;4936699;28;6788;-77
2022/10/19 00:06:59;;;;;;;;;;;;;;;13.08;60.93;101762.56;4922040;28;8384;-78
2022/10/19 00:09:24;;;;;;;;;;;;;;;13.03;61.00;101759.72;4926377;28;6912;-78
2022/10/19 00:11:50;;;;;;;;;;;;;;;12.99;60.80;101758.66;4938687;28;6949;-78
2022/10/19 00:14:22;;;;;;;;;;;;;;;12.96;60.58;101755.88;4924766;28;7211;-79
2022/10/19 00:16:51;;;;;;;;;;;;;;;12.94;61.50;101752.34;4916830;28;8905;-78
2022/10/19 00:19:25;;;;;;;;;;;;;;;12.94;61.69;101754.91;4921210;28;8443;-78
2022/10/19 00:21:51;;;;;;;;;;;;;;;12.92;61.03;101754.81;4930698;28;8409;-78
2022/10/19 00:24:17;;;;;;;;;;;;;;;12.91;61.00;101754.75;4939113;28;7333;-78
2022/10/19 00:26:43;;;;;;;;;;;;;;;12.90;61.51;101756.41;4927380;28;7251;-78
2022/10/19 00:29:13;;;;;;;;;;;;;;;12.89;60.80;101752.06;4923320;28;7623;-78
2022/10/19 00:31:39;;;;;;;;;;;;;;;12.90;61.78;101747.81;4939455;28;7991;-78
2022/10/19 00:34:05;;;;;;;;;;;;;;;12.88;61.70;101747.72;4906894;28;8512;-78
2022/10/19 00:36:37;;;;;;;;;;;;;;;12.88;61.95;101749.38;4940020;28;7614;-77
2022/10/19 00:39:06;;;;;;;;;;;;;;;12.88;61.83;101745.16;4938386;28;7001;-77
2022/10/19 00:41:35;;;;;;;;;;;;;;;12.88;61.15;101739.09;4938741;28;6864;-79
2022/10/19 00:44:11;;;;;;;;;;;;;;;12.89;61.65;101748.59;4939101;28;7207;-78
2022/10/19 00:46:43;;;;;;;;;;;;;;;12.89;61.50;101738.28;4935627;28;7259;-78
2022/10/19 00:49:21;;;;;;;;;;;;;;;12.91;62.22;101745.31;4940449;28;9432;-78
2022/10/19 00:51:59;;;;;;;;;;;;;;;12.91;61.27;101742.75;4928588;28;6816;-79
2022/10/19 00:54:26;;;;;;;;;;;;;;;12.91;61.74;101742.75;4923921;28;6991;-78
2022/10/19 00:56:55;;;;;;;;;;;;;;;12.91;61.24;101744.44;4918534;28;8544;-78
2022/10/19 00:59:24;;;;;;;;;;;;;;;12.91;62.06;101745.31;4922712;28;6825;-78
2022/10/19 01:01:52;;;;;;;;;;;;;;;12.90;61.25;101746.13;4939795;28;7211;-77
2022/10/19 01:04:21;;;;;;;;;;;;;;;12.91;61.23;101742.75;4923921;28;8508;-80
2022/10/19 01:06:46;;;;;;;;;;;;;;;12.89;61.22;101744.34;4908815;28;8402;-78
2022/10/19 01:09:12;;;;;;;;;;;;;;;12.89;61.70;101740.88;4920810;28;8804;-77
2022/10/19 01:12:05;;;;;;;;;;;;;;;12.89;61.09;101746.00;4942185;28;6788;-78
2022/10/19 01:15:23;;;;;;;;;;;;;;;12.86;61.44;101736.44;4920947;29;8470;-78
2022/10/19 01:17:57;;;;;;;;;;;;;;;12.81;61.95;101730.13;4937344;28;7213;-78
2022/10/19 01:20:59;;;;;;;;;;;;;;;12.81;61.90;101740.41;4932574;28;8698;-77
2022/10/19 01:24:10;;;;;;;;;;;;;;;12.79;61.94;101734.28;4921589;28;8405;-77
2022/10/19 01:27:05;;;;;;;;;;;;;;;12.78;61.22;101724.81;4925754;28;7229;-78
2022/10/19 01:30:05;;;;;;;;;;;;;;;12.74;61.80;101721.16;4941553;28;6985;-76
2022/10/19 01:33:01;;;;;;;;;;;;;;;12.72;60.87;101721.84;4937548;28;6976;-77
2022/10/19 01:35:42;;;;;;;;;;;;;;;12.66;61.28;101721.50;4922975;28;8761;-77
2022/10/19 01:38:34;;;;;;;;;;;;;;;12.64;61.74;101711.97;4923293;28;7162;-77
2022/10/19 01:41:16;;;;;;;;;;;;;;;12.60;61.28;101704.88;4936757;28;6812;-77
2022/10/19 01:44:11;;;;;;;;;;;;;;;12.57;61.28;101701.25;4936123;28;6796;-79
2022/10/19 01:46:48;;;;;;;;;;;;;;;12.52;61.27;101698.38;4935614;28;7236;-79
2022/10/19 01:49:37;;;;;;;;;;;;;;;12.50;61.32;101694.84;4934257;28;7077;-78
2022/10/19 01:52:09;;;;;;;;;;;;;;;12.52;61.88;101700.97;4937647;28;6913;-78
2022/10/19 01:54:42;;;;;;;;;;;;;;;12.53;61.62;101695.00;4934457;28;8477;-76
2022/10/19 01:57:17;;;;;;;;;;;;;;;12.54;62.33;101695.91;4929277;28;6973;-77
2022/10/19 01:59:46;;;;;;;;;;;;;;;12.57;62.08;101702.13;4938329;28;6808;-78
2022/10/19 02:02:15;;;;;;;;;;;;;;;12.56;61.92;101705.50;4920400;28;8414;-77
2022/10/19 02:04:42;;;;;;;;;;;;;;;12.55;61.06;101703.72;4910003;28;7472;-77
2022/10/19 02:07:10;;;;;;;;;;;;;;;12.50;61.32;101698.28;4920220;28;7266;-77
2022/10/19 02:09:36;;;;;;;;;;;;;;;12.51;61.90;101699.19;4932183;28;8484;-77
2022/10/19 02:12:08;;;;;;;;;;;;;;;12.48;61.51;101693.88;4922683;28;8337;-77
2022/10/19 02:14:43;;;;;;;;;;;;;;;12.48;62.07;101691.28;4937188;28;7055;-77
2022/10/19 02:17:16;;;;;;;;;;;;;;;12.47;61.54;101685.25;4922878;28;8748;-77
2022/10/19 02:19:42;;;;;;;;;;;;;;;12.46;61.16;101677.47;4923297;28;6808;-77
2022/10/19 02:22:09;;;;;;;;;;;;;;;12.42;61.10;101673.81;4931806;28;8744;-77
2022/10/19 02:24:34;;;;;;;;;;;;;;;12.40;61.03;101677.94;4936988;28;6800;-80
2022/10/19 02:27:04;;;;;;;;;;;;;;;12.35;61.47;101674.22;4935289;28;7247;-78
2022/10/19 02:29:33;;;;;;;;;;;;;;;12.30;60.70;101676.50;4928500;28;7181;-78
2022/10/19 02:32:00;;;;;;;;;;;;;;;12.27;61.38;101672.88;4935810;28;8447;-77
2022/10/19 02:34:27;;;;;;;;;;;;;;;12.24;61.47;101668.41;4913950;28;8358;-78
2022/10/19 02:36:54;;;;;;;;;;;;;;;12.22;61.00;101668.34;4919783;28;8516;-78
2022/10/19 02:39:20;;;;;;;;;;;;;;;12.19;61.48;101680.97;4929548;28;6857;-79
2022/10/19 02:42:04;;;;;;;;;;;;;;;12.17;61.21;101674.88;4936317;28;6804;-81
2022/10/19 02:45:07;;;;;;;;;;;;;;;12.14;61.36;101669.53;4930635;28;7442;-81
2022/10/19 02:47:47;;;;;;;;;;;;;;;12.14;61.52;101663.50;4939207;28;7227;-81
2022/10/19 02:50:20;;;;;;;;;;;;;;;12.13;61.20;101661.72;4920784;28;7261;-81
2022/10/19 02:52:45;;;;;;;;;;;;;;;12.12;60.75;101671.13;4924100;28;7211;-81
2022/10/19 02:55:11;;;;;;;;;;;;;;;12.11;61.84;101671.03;4920022;28;8630;-81
2022/10/19 02:57:37;;;;;;;;;;;;;;;12.07;61.69;101670.84;4930473;29;8448;-81
2022/10/19 03:00:06;;;;;;;;;;;;;;;12.04;61.49;101668.06;4923619;28;8467;-80
2022/10/19 03:02:32;;;;;;;;;;;;;;;12.00;61.26;101671.22;4917078;28;7135;-81
2022/10/19 03:04:57;;;;;;;;;;;;;;;11.97;60.73;101665.00;4937103;28;7196;-80
2022/10/19 03:07:23;;;;;;;;;;;;;;;11.93;61.26;101663.91;4939511;28;6945;-81
2022/10/19 03:09:49;;;;;;;;;;;;;;;11.90;61.42;101661.16;4922465;28;8408;-81
2022/10/19 03:12:16;;;;;;;;;;;;;;;11.88;61.08;101657.59;4934100;28;8827;-81
2022/10/19 03:14:42;;;;;;;;;;;;;;;11.88;61.67;101649.88;4920168;29;8497;-80
2022/10/19 03:17:08;;;;;;;;;;;;;;;11.86;61.01;101651.47;4919720;28;8423;-80
2022/10/19 03:19:35;;;;;;;;;;;;;;;11.84;61.14;101646.25;4924394;29;6978;-80
2022/10/19 03:22:00;;;;;;;;;;;;;;;11.84;61.16;101647.91;4923953;29;8834;-80
2022/10/19 03:24:26;;;;;;;;;;;;;;;11.84;61.74;101648.81;4923904;29;8603;-80
2022/10/19 03:26:52;;;;;;;;;;;;;;;11.86;61.54;101647.25;4933329;28;6949;-82
2022/10/19 03:29:17;;;;;;;;;;;;;;;11.88;62.25;101639.59;4935540;28;6872;-82
2022/10/19 03:31:43;;;;;;;;;;;;;;;11.88;61.84;101637.94;4931884;28;6993;-82
2022/10/19 03:34:09;;;;;;;;;;;;;;;11.92;62.10;101641.59;4919310;29;8500;-82
2022/10/19 03:36:37;;;;;;;;;;;;;;;11.95;62.25;101641.78;4934974;28;6777;-82
2022/10/19 03:39:09;;;;;;;;;;;;;;;11.97;62.48;101634.16;4938809;28;6804;-82
2022/10/19 03:41:36;;;;;;;;;;;;;;;12.01;62.19;101641.25;4937667;28;7243;-82
2022/10/19 03:44:03;;;;;;;;;;;;;;;12.03;62.17;101640.59;4914980;28;7058;-77
2022/10/19 03:46:29;;;;;;;;;;;;;;;12.03;62.37;101650.88;4932783;28;7245;-78
2022/10/19 03:48:55;;;;;;;;;;;;;;;12.05;61.92;101648.41;4922458;28;7284;-82
2022/10/19 03:51:29;;;;;;;;;;;;;;;12.04;61.87;101647.50;4930201;28;8589;-83
2022/10/19 03:54:03;;;;;;;;;;;;;;;12.04;61.89;101646.66;4924046;28;8434;-82
2022/10/19 03:56:31;;;;;;;;;;;;;;;12.04;62.22;101644.94;4936533;28;6951;-83
2022/10/19 03:58:59;;;;;;;;;;;;;;;12.05;62.05;101644.16;4937523;28;7202;-82
2022/10/19 04:01:36;;;;;;;;;;;;;;;12.07;62.68;101639.13;4923775;28;7475;-82
2022/10/19 04:04:13;;;;;;;;;;;;;;;12.08;62.77;101643.47;4935401;28;6969;-82
2022/10/19 04:06:42;;;;;;;;;;;;;;;12.10;62.31;101641.00;4938359;28;6796;-82
2022/10/19 04:09:13;;;;;;;;;;;;;;;12.13;62.91;101647.22;4936098;28;7206;-81
2022/10/19 04:11:40;;;;;;;;;;;;;;;12.15;62.50;101647.28;4934305;28;7025;-81
2022/10/19 04:14:07;;;;;;;;;;;;;;;12.16;62.85;101641.34;4935807;28;8445;-83
2022/10/19 04:16:33;;;;;;;;;;;;;;;12.16;61.96;101644.81;4913195;28;8410;-83
2022/10/19 04:18:59;;;;;;;;;;;;;;;12.15;62.41;101639.56;4917626;28;8464;-83
2022/10/19 04:21:30;;;;;;;;;;;;;;;12.12;62.19;101639.41;4903280;28;8755;-82
2022/10/19 04:24:09;;;;;;;;;;;;;;;12.09;61.66;101645.22;4909372;28;8443;-82
2022/10/19 04:26:40;;;;;;;;;;;;;;;12.04;61.92;101650.09;4934453;28;7051;-83
2022/10/19 04:29:07;;;;;;;;;;;;;;;12.01;61.59;101642.16;4935277;28;7007;-83
2022/10/19 04:31:33;;;;;;;;;;;;;;;11.96;61.55;101646.13;4921950;28;8444;-83
2022/10/19 04:33:58;;;;;;;;;;;;;;;11.93;61.32;101643.38;4935264;28;8688;-82
2022/10/19 04:36:24;;;;;;;;;;;;;;;11.88;61.55;101637.03;4919361;28;8370;-82
2022/10/19 04:38:50;;;;;;;;;;;;;;;11.84;61.42;101647.91;4923807;28;8496;-82
2022/10/19 04:41:19;;;;;;;;;;;;;;;11.80;62.01;101651.97;4907329;28;8383;-82
2022/10/19 04:43:46;;;;;;;;;;;;;;;11.79;61.97;101655.34;4926239;28;8428;-82
2022/10/19 04:46:15;;;;;;;;;;;;;;;11.78;62.21;101654.47;4941089;28;7352;-82
2022/10/19 04:48:42;;;;;;;;;;;;;;;11.78;62.73;101648.44;4908168;28;7155;-82
2022/10/19 04:51:09;;;;;;;;;;;;;;;11.81;62.11;101652.09;4928133;28;8479;-83
2022/10/19 04:53:38;;;;;;;;;;;;;;;11.83;62.47;101651.28;4935876;28;7187;-82
2022/10/19 04:56:11;;;;;;;;;;;;;;;11.85;62.55;101654.84;4916014;28;8466;-81
2022/10/19 04:58:37;;;;;;;;;;;;;;;11.86;62.48;101656.59;4923082;28;7008;-81
2022/10/19 05:01:17;;;;;;;;;;;;;;;11.87;62.38;101658.38;4937517;28;8043;-82
2022/10/19 05:03:43;;;;;;;;;;;;;;;11.87;61.84;101658.38;4913886;28;8987;-82
2022/10/19 05:06:11;;;;;;;;;;;;;;;11.88;62.22;101662.72;4925669;28;8397;-82
2022/10/19 05:08:38;;;;;;;;;;;;;;;11.86;62.29;101656.59;4919097;28;8456;-82
2022/10/19 05:11:10;;;;;;;;;;;;;;;11.86;62.11;101656.59;4920818;28;7522;-82
2022/10/19 05:13:37;;;;;;;;;;;;;;;11.85;62.39;101650.59;4922523;28;7047;-82
2022/10/19 05:16:05;;;;;;;;;;;;;;;11.84;62.50;101653.06;4931860;28;8442;-82
2022/10/19 05:18:32;;;;;;;;;;;;;;;11.82;62.57;101655.53;4922138;28;7200;-82
2022/10/19 05:21:11;;;;;;;;;;;;;;;11.80;62.48;101647.75;4923155;28;8434;-82
2022/10/19 05:23:38;;;;;;;;;;;;;;;11.78;62.66;101649.34;4926648;28;7397;-82
2022/10/19 05:26:18;;;;;;;;;;;;;;;11.76;62.66;101638.03;4933883;28;7230;-82
2022/10/19 05:28:55;;;;;;;;;;;;;;;11.74;62.56;101631.94;4939027;28;6859;-82
2022/10/19 05:31:23;;;;;;;;;;;;;;;11.70;62.07;101624.84;4917946;28;8566;-82
2022/10/19 05:33:49;;;;;;;;;;;;;;;11.69;62.31;101628.19;4921551;28;8541;-82
2022/10/19 05:36:24;;;;;;;;;;;;;;;11.66;62.13;101625.41;4934127;28;6804;-82
2022/10/19 05:38:53;;;;;;;;;;;;;;;11.62;61.86;101626.91;4931659;28;6973;-82
2022/10/19 05:41:21;;;;;;;;;;;;;;;11.61;62.06;101621.69;4929943;28;8525;-82
2022/10/19 05:43:58;;;;;;;;;;;;;;;11.58;62.44;101618.91;4925382;28;8422;-82
2022/10/19 05:46:27;;;;;;;;;;;;;;;11.55;62.30;101614.50;4922905;28;10368;-82
2022/10/19 05:48:55;;;;;;;;;;;;;;;11.51;62.60;101612.50;4938714;28;7404;-82
2022/10/19 05:51:23;;;;;;;;;;;;;;;11.49;62.41;101616.66;4924105;28;8456;-82
2022/10/19 05:53:51;;;;;;;;;;;;;;;11.45;61.96;101610.44;4927098;28;7271;-82
2022/10/19 05:56:22;;;;;;;;;;;;;;;11.47;62.55;101620.81;4922714;28;6969;-82
2022/10/19 05:58:48;;;;;;;;;;;;;;;11.45;61.97;101623.28;4939753;28;7054;-82
2022/10/19 06:01:17;;;;;;;;;;;;;;;11.44;62.79;101626.63;4918394;28;8452;-80
2022/10/19 06:03:44;;;;;;;;;;;;;;;11.43;62.39;101623.94;4913653;28;8693;-82
2022/10/19 06:06:09;;;;;;;;;;;;;;;11.43;62.40;101623.94;4920032;28;6986;-81
2022/10/19 06:08:36;;;;;;;;;;;;;;;11.43;62.20;101626.53;4934480;28;7177;-81
2022/10/19 06:11:15;;;;;;;;;;;;;;;11.42;62.20;101623.09;4917520;28;6796;-82
2022/10/19 06:13:43;;;;;;;;;;;;;;;11.41;62.26;101613.59;4928661;28;6827;-82
2022/10/19 06:16:12;;;;;;;;;;;;;;;11.42;62.36;101612.81;4923527;28;6971;-82
2022/10/19 06:18:39;;;;;;;;;;;;;;;11.42;62.43;101597.41;4930869;28;7253;-82
2022/10/19 06:21:13;;;;;;;;;;;;;;;11.45;62.31;101607.00;4937362;28;7235;-82
2022/10/19 06:23:39;;;;;;;;;;;;;;;11.44;62.11;101603.53;4921581;28;7030;-82
2022/10/19 06:26:13;;;;;;;;;;;;;;;11.45;62.18;101607.00;4930995;28;7187;-82
2022/10/19 06:28:41;;;;;;;;;;;;;;;11.44;62.36;101608.66;4906083;28;8759;-81
2022/10/19 06:31:07;;;;;;;;;;;;;;;11.45;62.35;101614.69;4936972;28;6855;-81
2022/10/19 06:33:33;;;;;;;;;;;;;;;11.47;62.85;101611.41;4936380;28;7174;-81
2022/10/19 06:36:10;;;;;;;;;;;;;;;11.49;62.65;101615.00;4937896;28;7235;-82
2022/10/19 06:38:36;;;;;;;;;;;;;;;11.50;62.61;101615.84;4934616;28;7939;-82
2022/10/19 06:41:02;;;;;;;;;;;;;;;11.51;63.18;101613.41;4927526;28;8344;-82
2022/10/19 06:43:28;;;;;;;;;;;;;;;11.55;62.64;101621.28;4921744;28;6824;-82
2022/10/19 06:45:55;;;;;;;;;;;;;;;11.59;63.41;101621.59;4930536;28;6776;-82
2022/10/19 06:48:20;;;;;;;;;;;;;;;11.62;63.04;101619.19;4913037;29;7773;-82
2022/10/19 06:50:46;;;;;;;;;;;;;;;11.65;63.28;101621.09;4935331;28;7589;-81
2022/10/19 06:53:11;;;;;;;;;;;;;;;11.68;63.38;101626.41;4921269;28;8631;-82
2022/10/19 06:55:37;;;;;;;;;;;;;;;11.71;63.45;101626.63;4924845;28;6972;-82
2022/10/19 06:58:03;;;;;;;;;;;;;;;11.75;63.44;101635.41;4936946;28;7190;-82
2022/10/19 07:00:30;;;;;;;;;;;;;;;11.77;63.23;101626.09;4931312;28;8434;-78
2022/10/19 07:02:57;;;;;;;;;;;;;;;11.84;63.62;101629.94;4924189;28;8444;-82
2022/10/19 07:05:23;;;;;;;;;;;;;;;11.90;63.21;101627.78;4938501;28;6804;-82
2022/10/19 07:07:49;;;;;;;;;;;;;;;11.93;63.42;101625.38;4936245;28;7381;-83
2022/10/19 07:10:14;;;;;;;;;;;;;;;11.98;63.48;101630.81;4921503;28;7180;-83
2022/10/19 07:12:41;;;;;;;;;;;;;;;12.00;63.20;101630.09;4921650;28;8762;-83
2022/10/19 07:15:07;;;;;;;;;;;;;;;12.01;63.67;101621.59;4934203;28;7043;-83
2022/10/19 07:17:33;;;;;;;;;;;;;;;12.06;63.09;101620.22;4935413;28;7205;-83
2022/10/19 07:19:59;;;;;;;;;;;;;;;12.10;62.97;101633.28;4938979;28;6784;-84
2022/10/19 07:22:24;;;;;;;;;;;;;;;12.14;63.03;101632.66;4916460;29;8388;-83
2022/10/19 07:24:51;;;;;;;;;;;;;;;12.18;63.91;101624.38;4939315;28;7153;-83
2022/10/19 07:27:17;;;;;;;;;;;;;;;12.24;63.99;101629.00;4922470;29;7119;-82
2022/10/19 07:29:42;;;;;;;;;;;;;;;12.28;63.96;101631.84;4927819;28;6971;-83
2022/10/19 07:32:08;;;;;;;;;;;;;;;12.34;63.49;101623.59;4932742;28;6959;-83
2022/10/19 07:34:33;;;;;;;;;;;;;;;12.39;63.28;101619.63;4925106;28;8434;-83
2022/10/19 07:36:59;;;;;;;;;;;;;;;12.45;63.55;101619.09;4919234;29;6968;-84
2022/10/19 07:39:26;;;;;;;;;;;;;;;12.54;64.08;101624.78;4932800;28;7177;-83
2022/10/19 07:41:52;;;;;;;;;;;;;;;12.62;64.29;101617.53;4933580;28;6808;-83
2022/10/19 07:44:18;;;;;;;;;;;;;;;12.68;64.07;101617.88;4922447;29;8801;-82
2022/10/19 07:46:44;;;;;;;;;;;;;;;12.75;63.51;101621.72;4938993;28;6856;-82
2022/10/19 07:49:15;;;;;;;;;;;;;;;12.83;64.29;101620.47;4918149;28;7193;-83
2022/10/19 07:51:41;;;;;;;;;;;;;;;12.88;64.11;101619.06;4924564;29;7251;-82
2022/10/19 07:54:07;;;;;;;;;;;;;;;12.97;63.84;101617.81;4934919;28;6949;-83
2022/10/19 07:56:33;;;;;;;;;;;;;;;13.03;64.27;101613.00;4924009;29;8590;-83
2022/10/19 07:59:00;;;;;;;;;;;;;;;13.11;64.11;101601.47;4923929;29;8940;-83
2022/10/19 08:01:33;;;;;;;;;;;;;;;13.19;63.67;101605.38;4921676;28;6953;-83
2022/10/19 08:04:00;;;;;;;;;;;;;;;13.28;63.98;101605.03;4921569;29;6992;-83
2022/10/19 08:06:26;;;;;;;;;;;;;;;13.34;63.42;101602.78;4935203;28;7493;-83
2022/10/19 08:08:53;;;;;;;;;;;;;;;13.42;64.55;101598.06;4937253;28;6813;-83
2022/10/19 08:11:29;;;;;;;;;;;;;;;13.51;63.48;101596.81;4921467;29;7330;-83
2022/10/19 08:13:58;;;;;;;;;;;;;;;13.58;63.90;101607.56;4905479;29;8822;-83
2022/10/19 08:16:31;;;;;;;;;;;;;;;13.67;64.26;101598.56;4921005;28;8401;-83
2022/10/19 08:19:22;;;;;;;;;;;;;;;13.75;64.17;101598.16;4936707;28;7199;-83
2022/10/19 08:21:49;;;;;;;;;;;;;;;13.87;64.57;101594.47;4919229;29;8528;-83
2022/10/19 08:24:18;;;;;;;;;;;;;;;13.97;63.52;101608.75;4923658;28;8634;-82
2022/10/19 08:26:44;;;;;;;;;;;;;;;14.03;64.29;101606.47;4910723;28;8450;-83
2022/10/19 08:29:18;;;;;;;;;;;;;;;14.08;63.66;101601.56;4923918;28;8603;-83
2022/10/19 08:31:46;;;;;;;;;;;;;;;14.12;63.93;101596.66;4921794;28;8384;-83
2022/10/19 08:34:13;;;;;;;;;;;;;;;14.16;63.91;101600.28;4930853;28;9036;-83
2022/10/19 08:36:40;;;;;;;;;;;;;;;14.21;63.33;101601.41;4939898;28;7109;-83
2022/10/19 08:39:08;;;;;;;;;;;;;;;14.27;64.08;101599.16;4938702;28;6994;-82
2022/10/19 08:42:01;;;;;;;;;;;;;;;14.33;64.42;101601.16;4907559;28;8508;-81
2022/10/19 08:44:26;;;;;;;;;;;;;;;14.37;63.89;101592.78;4923873;28;8518;-80
2022/10/19 08:47:26;;;;;;;;;;;;;;;14.42;64.13;101590.44;4940463;28;8732;-81
2022/10/19 08:49:53;;;;;;;;;;;;;;;14.46;63.95;101583.75;4940787;28;7178;-80
2022/10/19 08:52:34;;;;;;;;;;;;;;;14.50;64.02;101578.81;4921935;28;8566;-80
2022/10/19 08:55:14;;;;;;;;;;;;;;;14.58;64.58;101586.94;4933841;28;7251;-80
2022/10/19 08:58:23;;;;;;;;;;;;;;;14.70;64.92;101582.38;4923924;28;7350;-80
2022/10/19 09:01:00;;;;;;;;;;;;;;;14.83;64.56;101573.59;4937311;28;7283;-80
2022/10/19 09:03:53;;;;;;;;;;;;;;;14.93;64.27;101574.06;4935633;28;8645;-80
2022/10/19 09:06:35;;;;;;;;;;;;;;;15.00;64.81;101577.00;4925091;28;7198;-80
2022/10/19 09:09:04;;;;;;;;;;;;;;;15.06;64.05;101581.56;4925835;28;7254;-80
2022/10/19 09:11:37;;;;;;;;;;;;;;;15.12;63.71;101575.84;4937148;28;6963;-80
2022/10/19 09:14:26;;;;;;;;;;;;;;;15.20;64.24;101568.47;4923153;28;8460;-80
2022/10/19 09:17:02;;;;;;;;;;;;;;;15.28;64.33;101567.13;4926837;28;8471;-80
2022/10/19 09:19:30;;;;;;;;;;;;;;;15.37;64.38;101570.16;4937557;28;6804;-80
2022/10/19 09:22:26;;;;;;;;;;;;;;;15.46;64.08;101569.69;4937892;28;6800;-81
2022/10/19 09:25:02;;;;;;;;;;;;;;;15.52;63.64;101571.66;4913795;28;8334;-80
2022/10/19 09:27:38;;;;;;;;;;;;;;;15.61;64.47;101566.91;4938897;28;7152;-80
2022/10/19 09:30:18;;;;;;;;;;;;;;;15.66;63.74;101551.63;4939040;28;6996;-80
2022/10/19 09:32:48;;;;;;;;;;;;;;;15.69;63.53;101552.66;4927380;28;11664;-80
2022/10/19 09:35:35;;;;;;;;;;;;;;;15.76;63.38;101555.53;4933374;28;8489;-80
2022/10/19 09:38:05;;;;;;;;;;;;;;;15.76;63.40;101555.53;4939641;28;7250;-80
2022/10/19 09:40:32;;;;;;;;;;;;;;;15.77;63.69;101546.94;4936363;28;6996;-80
2022/10/19 09:43:02;;;;;;;;;;;;;;;15.80;63.10;101544.50;4921764;28;7224;-80
2022/10/19 09:45:48;;;;;;;;;;;;;;;15.81;63.22;101544.56;4937327;28;7277;-80
2022/10/19 09:48:34;;;;;;;;;;;;;;;15.82;63.49;101546.34;4937348;28;8469;-80
2022/10/19 09:51:09;;;;;;;;;;;;;;;15.89;63.57;101544.91;4939310;28;7223;-80
2022/10/19 09:53:36;;;;;;;;;;;;;;;15.95;63.34;101540.06;4938230;28;7310;-81
2022/10/19 09:56:15;;;;;;;;;;;;;;;16.00;63.21;101544.53;4937147;28;7183;-79
2022/10/19 09:58:51;;;;;;;;;;;;;;;16.02;62.77;101543.78;4922151;28;9496;-81
2022/10/19 10:01:33;;;;;;;;;;;;;;;16.08;63.25;101553.50;4924365;28;8966;-81
2022/10/19 10:04:14;;;;;;;;;;;;;;;16.12;63.37;101545.06;4937129;28;6972;-80
2022/10/19 10:06:45;;;;;;;;;;;;;;;16.18;62.98;101550.50;4935254;28;7218;-79
2022/10/19 10:09:33;;;;;;;;;;;;;;;16.28;62.95;101556.06;4923210;28;7005;-79
2022/10/19 10:11:58;;;;;;;;;;;;;;;16.33;62.72;101557.16;4928318;28;8430;-79
2022/10/19 10:14:39;;;;;;;;;;;;;;;16.40;62.94;101561.75;4926159;28;8763;-80
2022/10/19 10:17:20;;;;;;;;;;;;;;;16.44;62.84;101548.16;4921919;28;7007;-82
2022/10/19 10:19:57;;;;;;;;;;;;;;;16.47;62.65;101545.69;4926075;28;8797;-82
2022/10/19 10:22:34;;;;;;;;;;;;;;;16.52;62.61;101541.59;4937866;28;6981;-82
2022/10/19 10:25:00;;;;;;;;;;;;;;;16.61;62.57;101535.00;4936282;28;7277;-83
2022/10/19 10:27:34;;;;;;;;;;;;;;;16.70;62.58;101529.34;4936906;28;7042;-82
2022/10/19 10:30:14;;;;;;;;;;;;;;;16.76;61.60;101525.31;4938750;28;7239;-82
2022/10/19 10:32:49;;;;;;;;;;;;;;;16.76;62.07;101530.47;4920544;28;11595;-82
2022/10/19 10:35:52;;;;;;;;;;;;;;;16.77;61.78;101527.06;4921939;28;7288;-82
2022/10/19 10:38:29;;;;;;;;;;;;;;;16.89;62.49;101520.59;4939217;28;7252;-82
2022/10/19 10:41:16;;;;;;;;;;;;;;;17.12;62.94;101518.97;4923406;28;7015;-82
2022/10/19 10:44:20;;;;;;;;;;;;;;;17.40;61.92;101520.03;4936666;28;6808;-82
2022/10/19 10:47:01;;;;;;;;;;;;;;;17.48;60.42;101512.56;4902182;28;7025;-80
2022/10/19 10:49:36;;;;;;;;;;;;;;;17.44;60.37;101511.56;4929953;28;6867;-79
2022/10/19 10:52:16;;;;;;;;;;;;;;;17.37;60.89;101504.38;4927285;28;6854;-80
2022/10/19 10:55:15;;;;;;;;;;;;;;;17.41;60.84;101507.97;4933485;28;7318;-79
2022/10/19 10:57:49;;;;;;;;;;;;;;;17.69;61.90;101516.75;4916340;28;6852;-80
2022/10/19 11:00:20;;;;;;;;;;;;;;;18.24;61.77;101509.19;4937952;28;6943;-79
2022/10/19 11:03:21;;;;;;;;;;;;;;;19.10;60.75;101492.03;4922358;28;7967;-80
2022/10/19 11:05:58;;;;;;;;;;;;;;;19.90;58.92;101487.38;4926179;28;8475;-80
2022/10/19 11:08:49;;;;;;;;;;;;;;;20.54;57.73;101471.63;4934091;28;6998;-80
2022/10/19 11:11:43;;;;;;;;;;;;;;;21.01;55.90;101473.63;4934102;28;7085;-79
2022/10/19 11:14:35;;;;;;;;;;;;;;;21.61;54.07;101475.66;4922325;28;7084;-79
2022/10/19 11:17:22;;;;;;;;;;;;;;;22.34;52.50;101466.53;4919986;29;8516;-81
2022/10/19 11:19:50;;;;;;;;;;;;;;;23.12;51.81;101462.47;4933729;28;7082;-80
2022/10/19 11:22:34;;;;;;;;;;;;;;;23.99;50.58;101445.09;4928725;28;6812;-80
2022/10/19 11:25:24;;;;;;;;;;;;;;;24.70;48.69;101447.41;4927166;29;7603;-81
2022/10/19 11:28:30;;;;;;;;;;;;;;;25.40;47.18;101439.88;4932820;28;7429;-82
2022/10/19 11:31:15;;;;;;;;;;;;;;;25.99;45.20;101431.25;4929100;28;8660;-82
2022/10/19 11:34:15;;;;;;;;;;;;;;;26.49;44.25;101432.09;4927731;28;8633;-80
2022/10/19 11:37:25;;;;;;;;;;;;;;;26.85;42.29;101413.59;4931161;28;8814;-81
2022/10/19 11:40:26;;;;;;;;;;;;;;;26.80;40.90;101412.72;4920004;29;8506;-81
2022/10/19 11:43:11;;;;;;;;;;;;;;;26.76;40.31;101404.88;4937186;28;7169;-79
2022/10/19 11:46:01;;;;;;;;;;;;;;;26.56;40.44;101407.53;4927830;28;7057;-79
2022/10/19 11:48:58;;;;;;;;;;;;;;;26.33;40.77;101405.84;4935861;28;7033;-78
2022/10/19 11:51:44;;;;;;;;;;;;;;;26.11;40.62;101396.19;4937001;28;6834;-80
2022/10/19 11:55:06;;;;;;;;;;;;;;;26.08;41.23;101399.72;4915338;28;8451;-81
2022/10/19 11:58:14;;;;;;;;;;;;;;;26.22;40.71;101380.47;4936119;28;7203;-80
2022/10/19 12:00:58;;;;;;;;;;;;;;;26.31;40.18;101375.19;4937668;28;7169;-79
2022/10/19 12:03:54;;;;;;;;;;;;;;;26.19;40.57;101365.53;4914965;28;6980;-79
2022/10/19 12:06:46;;;;;;;;;;;;;;;25.55;40.70;101359.47;4940210;28;6981;-79
2022/10/19 12:09:46;;;;;;;;;;;;;;;24.49;42.32;101366.94;4939459;28;7210;-81
2022/10/19 12:12:19;;;;;;;;;;;;;;;23.48;43.55;101363.53;4921677;28;8904;-79
2022/10/19 12:14:51;;;;;;;;;;;;;;;22.66;44.70;101361.72;4935476;28;6994;-81
2022/10/19 12:17:29;;;;;;;;;;;;;;;22.01;45.51;101363.34;4941173;28;7284;-80
2022/10/19 12:20:21;;;;;;;;;;;;;;;21.43;46.72;101359.72;4938292;28;7248;-80
2022/10/19 12:22:48;;;;;;;;;;;;;;;21.00;47.65;101361.50;4937803;28;6891;-81
2022/10/19 12:25:17;;;;;;;;;;;;;;;20.73;48.72;101360.06;4927626;28;6992;-80
2022/10/19 12:27:47;;;;;;;;;;;;;;;20.52;48.74;101349.22;4922632;28;8524;-81
2022/10/19 12:30:21;;;;;;;;;;;;;;;20.36;49.32;101357.53;4939908;28;8224;-81
2022/10/19 12:33:45;;;;;;;;;;;;;;;20.18;49.98;101351.06;4923055;28;7176;-81
2022/10/19 12:36:43;;;;;;;;;;;;;;;20.06;50.11;101348.16;4921438;28;8837;-80
2022/10/19 12:39:25;;;;;;;;;;;;;;;19.98;50.76;101332.34;4924436;28;6844;-80
2022/10/19 12:42:36;;;;;;;;;;;;;;;19.94;51.40;101327.94;4928012;28;8533;-81
2022/10/19 12:45:29;;;;;;;;;;;;;;;19.90;51.53;101329.53;4893539;28;7209;-80
2022/10/19 12:48:06;;;;;;;;;;;;;;;19.91;51.92;101328.69;4936592;28;7250;-80
2022/10/19 12:50:47;;;;;;;;;;;;;;;19.93;51.55;101314.03;4939440;28;7087;-80
2022/10/19 12:53:39;;;;;;;;;;;;;;;19.97;52.22;101305.47;4925009;28;8414;-81
2022/10/19 12:56:08;;;;;;;;;;;;;;;20.00;52.23;101302.06;4937310;28;7207;-79
2022/10/19 12:58:49;;;;;;;;;;;;;;;20.01;52.03;101293.44;4940840;28;8456;-79
2022/10/19 13:01:34;;;;;;;;;;;;;;;20.02;52.27;101295.19;4918006;28;8461;-79
2022/10/19 13:04:08;;;;;;;;;;;;;;;20.04;52.38;101288.28;4939002;28;8615;-80
2022/10/19 13:06:50;;;;;;;;;;;;;;;20.10;52.45;101288.44;4940058;28;7053;-80
2022/10/19 13:09:36;;;;;;;;;;;;;;;20.19;52.13;101281.69;4923745;28;7265;-80
2022/10/19 13:12:14;;;;;;;;;;;;;;;20.22;51.98;101281.75;4921535;28;8550;-79
2022/10/19 13:14:49;;;;;;;;;;;;;;;20.24;51.87;101285.25;4937141;28;7256;-81
2022/10/19 13:17:40;;;;;;;;;;;;;;;20.29;52.44;101293.16;4934034;28;7016;-80
2022/10/19 13:20:15;;;;;;;;;;;;;;;20.34;52.21;101288.94;4927656;28;7355;-81
2022/10/19 13:22:58;;;;;;;;;;;;;;;20.37;52.28;101279.44;4921842;28;7236;-82
2022/10/19 13:25:33;;;;;;;;;;;;;;;20.38;51.90;101267.31;4934584;28;7302;-78